Time,TemperatureF,DewpointF,PressureIn,WindDirection,WindDirectionDegrees,WindSpeedMPH,WindSpeedGustMPH,Humidity,HourlyPrecipIn,Conditions,Clouds,dailyrainin,SoftwareType,DateUTC
2013-05-28 00:03:00,65.8,65.8,29.83,SE,129,3.1,3.1,100,0.00,,SCT100,0.00,VWS V14.01,2013-05-28 05:03:00,
2013-05-28 00:09:00,65.8,65.8,29.83,SW,226,0.0,4.0,100,0.00,,SCT100,0.00,VWS V14.01,2013-05-28 05:09:00,
2013-05-28 00:14:00,65.8,65.8,29.83,SSW,207,0.0,6.3,100,0.00,,SCT100,0.00,VWS V14.01,2013-05-28 05:14:00,
2013-05-28 00:19:00,66.0,66.0,29.83,SW,214,0.0,4.0,100,0.00,,SCT100,0.00,VWS V14.01,2013-05-28 05:19:00,
2013-05-28 00:24:00,66.0,66.0,29.83,South,176,2.7,4.9,100,0.00,,SCT100,0.00,VWS V14.01,2013-05-28 05:24:00,
2013-05-28 00:29:00,66.0,66.0,29.83,South,182,0.0,3.1,100,0.00,,SCT100,0.00,VWS V14.01,2013-05-28 05:29:00,
2013-05-28 00:34:00,66.0,66.0,29.83,South,172,0.0,4.9,100,0.00,,SCT100,0.00,VWS V14.01,2013-05-28 05:34:00,
2013-05-28 00:39:00,66.0,66.0,29.83,SSW,202,0.0,5.8,100,0.00,,SCT100,0.00,VWS V14.01,2013-05-28 05:39:00,
2013-05-28 00:44:00,66.0,66.0,29.83,SSW,204,0.0,6.3,100,0.00,,SCT100,0.00,VWS V14.01,2013-05-28 05:44:00,
2013-05-28 00:49:00,66.2,66.2,29.83,SSE,151,4.0,4.9,100,0.00,,SCT100,0.00,VWS V14.01,2013-05-28 05:49:00,
2013-05-28 00:54:00,66.2,66.2,29.83,SSW,198,0.0,6.3,100,0.00,,SCT100,0.00,VWS V14.01,2013-05-28 05:54:00,
2013-05-28 00:59:00,66.2,66.2,29.80,SSW,193,3.1,6.3,100,0.00,,SCT100,0.00,VWS V14.01,2013-05-28 05:59:00,
2013-05-28 01:05:00,66.2,66.2,29.80,SW,229,4.0,5.4,100,0.00,,CLR,0.00,VWS V14.01,2013-05-28 06:05:00,
2013-05-28 01:10:00,66.2,66.2,29.80,ENE,66,4.0,6.7,100,0.00,,CLR,0.00,VWS V14.01,2013-05-28 06:10:00,
2013-05-28 01:15:00,66.2,66.2,29.80,SSE,160,5.8,6.3,100,0.00,,CLR,0.00,VWS V14.01,2013-05-28 06:15:00,
2013-05-28 01:20:00,66.2,66.2,29.80,SSW,210,3.6,7.6,100,0.00,,CLR,0.00,VWS V14.01,2013-05-28 06:20:00,
2013-05-28 01:25:00,66.2,65.6,29.80,South,186,5.4,5.8,98,0.00,,CLR,0.00,VWS V14.01,2013-05-28 06:25:00,
2013-05-28 01:30:00,66.4,64.8,29.80,SSW,195,4.0,4.0,94,0.00,,CLR,0.00,VWS V14.01,2013-05-28 06:30:00,
2013-05-28 01:35:00,66.4,64.8,29.80,SW,223,2.7,4.5,94,0.00,,CLR,0.00,VWS V14.01,2013-05-28 06:35:00,
2013-05-28 01:40:00,66.6,64.9,29.80,South,184,0.0,2.7,94,0.00,,CLR,0.00,VWS V14.01,2013-05-28 06:40:00,
2013-05-28 01:45:00,66.6,64.9,29.80,SW,229,6.3,6.3,94,0.00,,CLR,0.00,VWS V14.01,2013-05-28 06:45:00,
2013-05-28 01:50:00,66.7,65.1,29.80,SSW,212,4.0,5.4,94,0.00,,CLR,0.00,VWS V14.01,2013-05-28 06:50:00,
2013-05-28 01:55:00,66.7,65.1,29.80,SSW,203,3.6,4.9,94,0.00,,CLR,0.00,VWS V14.01,2013-05-28 06:55:00,
2013-05-28 02:01:00,66.9,64.2,29.80,SSW,211,4.5,4.9,91,0.00,,CLR,0.00,VWS V14.01,2013-05-28 07:01:00,
2013-05-28 02:06:00,67.1,64.4,29.80,SW,225,5.4,5.4,91,0.00,,CLR,0.00,VWS V14.01,2013-05-28 07:06:00,
2013-05-28 02:11:00,67.1,64.4,29.80,SW,227,3.6,4.0,91,0.00,,CLR,0.00,VWS V14.01,2013-05-28 07:11:00,
2013-05-28 02:16:00,67.1,63.3,29.80,SSW,213,8.7,8.7,88,0.00,,CLR,0.00,VWS V14.01,2013-05-28 07:16:00,
2013-05-28 02:21:00,67.3,63.5,29.80,SSE,148,3.1,8.3,88,0.00,,CLR,0.00,VWS V14.01,2013-05-28 07:21:00,
2013-05-28 02:26:00,67.3,63.5,29.80,SSW,206,10.5,10.5,88,0.00,,CLR,0.00,VWS V14.01,2013-05-28 07:26:00,
2013-05-28 02:31:00,67.1,64.4,29.78,SSE,150,4.0,8.7,91,0.00,,CLR,0.00,VWS V14.01,2013-05-28 07:31:00,
2013-05-28 02:39:00,67.1,64.4,29.78,SW,218,3.1,8.1,91,0.00,,CLR,0.00,VWS V14.01,2013-05-28 07:39:00,
2013-05-28 02:44:00,66.9,64.2,29.78,SE,145,2.7,7.6,91,0.00,,CLR,0.00,VWS V14.01,2013-05-28 07:44:00,
2013-05-28 02:49:00,66.9,64.2,29.78,SSW,213,3.6,6.3,91,0.00,,CLR,0.00,VWS V14.01,2013-05-28 07:49:00,
2013-05-28 02:55:00,66.7,65.1,29.78,SW,216,5.4,5.8,94,0.00,,CLR,0.00,VWS V14.01,2013-05-28 07:55:00,
2013-05-28 03:00:00,66.7,65.1,29.78,South,179,5.4,7.6,94,0.00,,CLR,0.00,VWS V14.01,2013-05-28 08:00:00,
2013-05-28 03:05:00,66.6,66.0,29.78,SSW,196,0.0,8.1,98,0.00,,CLR,0.00,VWS V14.01,2013-05-28 08:05:00,
2013-05-28 03:10:00,66.6,66.0,29.78,South,179,6.3,8.7,98,0.00,,CLR,0.00,VWS V14.01,2013-05-28 08:10:00,
2013-05-28 03:15:00,66.6,66.6,29.78,South,182,2.2,7.6,100,0.00,,CLR,0.00,VWS V14.01,2013-05-28 08:15:00,
2013-05-28 03:20:00,66.4,66.4,29.78,SSW,199,2.7,6.3,100,0.00,,CLR,0.00,VWS V14.01,2013-05-28 08:20:00,
2013-05-28 03:25:00,66.4,66.4,29.78,South,172,5.4,5.4,100,0.00,,CLR,0.00,VWS V14.01,2013-05-28 08:25:00,
2013-05-28 03:30:00,66.4,66.4,29.75,South,191,6.3,6.3,100,0.00,,CLR,0.00,VWS V14.01,2013-05-28 08:30:00,
2013-05-28 03:35:00,66.4,66.4,29.75,South,180,3.1,8.3,100,0.00,,CLR,0.00,VWS V14.01,2013-05-28 08:35:00,
2013-05-28 03:40:00,66.4,66.4,29.75,SSW,192,3.6,3.6,100,0.00,,CLR,0.00,VWS V14.01,2013-05-28 08:40:00,
2013-05-28 03:45:00,66.2,66.2,29.78,SE,137,0.0,2.7,100,0.00,,CLR,0.00,VWS V14.01,2013-05-28 08:45:00,
2013-05-28 03:50:00,66.2,66.2,29.78,SSW,195,4.0,4.0,100,0.00,,CLR,0.00,VWS V14.01,2013-05-28 08:50:00,
2013-05-28 03:55:00,66.2,66.2,29.78,South,175,3.1,4.0,100,0.00,,CLR,0.00,VWS V14.01,2013-05-28 08:55:00,
2013-05-28 04:00:00,66.4,66.4,29.78,SSW,207,3.6,5.4,100,0.00,,CLR,0.00,VWS V14.01,2013-05-28 09:00:00,
2013-05-28 04:05:00,66.4,66.4,29.78,South,187,3.1,6.3,100,0.00,,CLR,0.00,VWS V14.01,2013-05-28 09:05:00,
2013-05-28 04:11:00,66.2,66.2,29.78,South,190,2.7,3.1,100,0.00,,CLR,0.00,VWS V14.01,2013-05-28 09:11:00,
2013-05-28 04:16:00,66.2,66.2,29.78,South,177,6.3,6.3,100,0.00,,CLR,0.00,VWS V14.01,2013-05-28 09:16:00,
2013-05-28 04:21:00,66.2,66.2,29.78,SSW,197,3.6,6.3,100,0.00,,CLR,0.00,VWS V14.01,2013-05-28 09:21:00,
2013-05-28 04:26:00,66.4,66.4,29.78,South,185,0.0,4.5,100,0.00,,CLR,0.00,VWS V14.01,2013-05-28 09:26:00,
2013-05-28 04:31:00,66.4,66.4,29.80,South,182,3.6,3.6,100,0.00,,CLR,0.00,VWS V14.01,2013-05-28 09:31:00,
2013-05-28 04:36:00,66.4,66.4,29.80,SSW,213,3.1,5.4,100,0.00,,CLR,0.00,VWS V14.01,2013-05-28 09:36:00,
2013-05-28 04:41:00,66.6,66.6,29.80,SSW,196,6.3,6.3,100,0.00,,CLR,0.00,VWS V14.01,2013-05-28 09:41:00,
2013-05-28 04:46:00,66.6,66.6,29.80,SSW,199,0.0,6.3,100,0.00,,CLR,0.00,VWS V14.01,2013-05-28 09:46:00,
2013-05-28 04:51:00,66.6,66.6,29.80,South,175,4.9,5.8,100,0.00,,CLR,0.00,VWS V14.01,2013-05-28 09:51:00,
2013-05-28 04:56:00,66.6,66.6,29.80,South,185,0.0,4.0,100,0.00,,CLR,0.00,VWS V14.01,2013-05-28 09:56:00,
2013-05-28 05:01:00,66.6,66.6,29.80,SSW,196,8.1,8.1,100,0.00,,CLR,0.00,VWS V14.01,2013-05-28 10:01:00,
2013-05-28 05:06:00,66.6,66.6,29.80,SW,217,5.8,5.8,100,0.00,,CLR,0.00,VWS V14.01,2013-05-28 10:06:00,
2013-05-28 05:12:00,66.7,66.7,29.80,South,191,0.0,7.6,100,0.00,,SCT065,0.00,VWS V14.01,2013-05-28 10:12:00,
2013-05-28 05:17:00,66.7,66.7,29.80,South,170,3.1,6.3,100,0.00,,SCT065,0.00,VWS V14.01,2013-05-28 10:17:00,
2013-05-28 05:22:00,66.7,66.7,29.80,SSW,211,4.0,4.0,100,0.00,,SCT065,0.00,VWS V14.01,2013-05-28 10:22:00,
2013-05-28 05:27:00,66.6,66.6,29.80,South,190,5.4,5.8,100,0.00,,SCT065,0.00,VWS V14.01,2013-05-28 10:27:00,
2013-05-28 05:32:00,66.6,66.6,29.80,SSW,194,0.0,5.4,100,0.00,,BKN055,0.00,VWS V14.01,2013-05-28 10:32:00,
2013-05-28 05:37:00,66.4,66.4,29.80,South,175,0.0,3.6,100,0.00,,BKN055,0.00,VWS V14.01,2013-05-28 10:37:00,
2013-05-28 05:42:00,66.4,66.4,29.80,SSW,192,3.6,6.3,100,0.00,,BKN090,0.00,VWS V14.01,2013-05-28 10:42:00,
2013-05-28 05:47:00,66.4,66.4,29.83,SSW,196,4.0,4.9,100,0.00,,BKN090,0.00,VWS V14.01,2013-05-28 10:47:00,
2013-05-28 05:52:00,66.4,66.4,29.83,SW,233,7.2,7.2,100,0.04,,BKN090,0.04,VWS V14.01,2013-05-28 10:52:00,
2013-05-28 05:57:00,66.6,66.6,29.83,WSW,254,0.0,5.8,100,0.04,,BKN090,0.04,VWS V14.01,2013-05-28 10:57:00,
2013-05-28 06:02:00,66.7,66.7,29.83,SSW,192,2.2,4.0,100,0.04,,SCT120,0.04,VWS V14.01,2013-05-28 11:02:00,
2013-05-28 06:08:00,66.7,66.7,29.83,SSW,192,2.2,3.6,100,0.04,,SCT120,0.04,VWS V14.01,2013-05-28 11:08:00,
2013-05-28 06:13:00,66.9,66.9,29.83,SSW,203,3.6,6.3,100,0.04,,SCT120,0.04,VWS V14.01,2013-05-28 11:13:00,
2013-05-28 06:18:00,67.1,67.1,29.83,SSE,164,0.0,4.9,100,0.04,,SCT120,0.04,VWS V14.01,2013-05-28 11:18:00,
2013-05-28 06:23:00,67.1,67.1,29.83,SSW,212,2.7,4.9,100,0.08,,SCT120,0.08,VWS V14.01,2013-05-28 11:23:00,
2013-05-28 06:28:00,67.1,67.1,29.83,SSW,201,0.0,7.6,100,0.08,,BKN120,0.08,VWS V14.01,2013-05-28 11:28:00,
2013-05-28 06:33:00,67.3,67.3,29.83,South,172,4.0,6.3,100,0.12,,BKN120,0.12,VWS V14.01,2013-05-28 11:33:00,
2013-05-28 06:38:00,67.3,67.3,29.83,South,190,3.6,9.2,100,0.12,,BKN120,0.12,VWS V14.01,2013-05-28 11:38:00,
2013-05-28 06:43:00,67.3,67.3,29.83,WSW,241,4.0,10.1,100,0.12,,-RA,0.12,VWS V14.01,2013-05-28 11:43:00,
2013-05-28 06:48:00,67.3,67.3,29.83,SSW,211,2.7,8.7,100,0.16,,-RA,0.16,VWS V14.01,2013-05-28 11:48:00,
2013-05-28 06:53:00,67.3,67.3,29.83,SW,222,3.1,7.6,100,0.12,,-RA,0.16,VWS V14.01,2013-05-28 11:53:00,
2013-05-28 06:58:00,67.1,67.1,29.83,SE,145,3.1,6.3,100,0.12,,-RA,0.16,VWS V14.01,2013-05-28 11:58:00,
2013-05-28 07:04:00,67.1,67.1,29.78,South,178,4.0,6.3,100,0.12,,OVC060,0.16,VWS V14.01,2013-05-28 12:04:00,
2013-05-28 07:09:00,67.1,67.1,29.78,SSW,203,5.8,12.8,100,0.12,,OVC060,0.16,VWS V14.01,2013-05-28 12:09:00,
2013-05-28 07:14:00,67.1,67.1,29.78,SSW,201,4.9,11.0,100,0.12,,OVC060,0.16,VWS V14.01,2013-05-28 12:14:00,
2013-05-28 07:19:00,67.1,67.1,29.78,SSW,204,5.4,10.5,100,0.12,,OVC060,0.16,VWS V14.01,2013-05-28 12:19:00,
2013-05-28 07:24:00,66.9,66.9,29.78,SE,133,6.3,11.0,100,0.12,,SCT120,0.16,VWS V14.01,2013-05-28 12:24:00,
2013-05-28 07:29:00,66.9,66.9,29.78,SSW,194,5.8,12.3,100,0.08,,SCT120,0.16,VWS V14.01,2013-05-28 12:29:00,
2013-05-28 07:34:00,66.9,66.9,29.78,SSE,159,6.3,10.1,100,0.12,,SCT120,0.20,VWS V14.01,2013-05-28 12:34:00,
2013-05-28 07:39:00,66.7,66.7,29.78,South,173,17.4,17.4,100,0.08,,SCT120,0.20,VWS V14.01,2013-05-28 12:39:00,
2013-05-28 07:44:00,66.6,66.6,29.78,SSW,201,5.4,13.2,100,0.08,,-RA,0.20,VWS V14.01,2013-05-28 12:44:00,
2013-05-28 07:49:00,66.6,66.6,29.78,SSW,194,8.1,10.1,100,0.08,,-RA,0.20,VWS V14.01,2013-05-28 12:49:00,
2013-05-28 07:54:00,66.4,66.4,29.78,SE,132,5.4,18.3,100,0.04,,-RA,0.20,VWS V14.01,2013-05-28 12:54:00,
2013-05-28 07:59:00,66.4,66.4,29.75,SW,219,5.4,12.3,100,0.08,,-RA,0.24,VWS V14.01,2013-05-28 12:59:00,
2013-05-28 08:05:00,66.4,66.4,29.75,SSE,163,5.4,8.3,100,0.08,,OVC075,0.24,VWS V14.01,2013-05-28 13:05:00,
2013-05-28 08:10:00,66.4,66.4,29.75,SSE,152,8.1,8.7,100,0.08,,OVC075,0.24,VWS V14.01,2013-05-28 13:10:00,
2013-05-28 08:15:00,66.4,66.4,29.78,SW,217,12.8,12.8,100,0.08,,OVC075,0.24,VWS V14.01,2013-05-28 13:15:00,
2013-05-28 08:20:00,66.6,66.6,29.78,South,188,5.8,12.8,100,0.08,,OVC075,0.24,VWS V14.01,2013-05-28 13:20:00,
2013-05-28 08:25:00,66.6,66.6,29.78,SSW,192,4.0,9.2,100,0.08,,OVC075,0.24,VWS V14.01,2013-05-28 13:25:00,
2013-05-28 08:30:00,66.6,66.6,29.78,SW,227,5.8,5.8,100,0.08,,OVC110,0.24,VWS V14.01,2013-05-28 13:30:00,
2013-05-28 08:35:00,66.9,66.9,29.78,South,175,5.8,5.8,100,0.04,,OVC110,0.24,VWS V14.01,2013-05-28 13:35:00,
2013-05-28 08:40:00,67.1,67.1,29.78,South,183,2.7,3.1,100,0.04,,OVC110,0.24,VWS V14.01,2013-05-28 13:40:00,
2013-05-28 08:45:00,67.3,67.3,29.80,SSW,193,4.0,4.0,100,0.04,,-RA,0.24,VWS V14.01,2013-05-28 13:45:00,
2013-05-28 08:50:00,67.5,67.5,29.80,SSW,207,0.0,4.0,100,0.04,,-RA,0.24,VWS V14.01,2013-05-28 13:50:00,
2013-05-28 08:55:00,67.6,67.6,29.80,SSW,195,0.0,2.7,100,0.04,,-RA,0.24,VWS V14.01,2013-05-28 13:55:00,
2013-05-28 09:00:00,67.8,67.8,29.80,SW,220,4.5,4.5,100,0.00,,BKN090,0.24,VWS V14.01,2013-05-28 14:00:00,
2013-05-28 09:05:00,67.8,67.8,29.80,South,181,3.1,3.1,100,0.00,,BKN090,0.24,VWS V14.01,2013-05-28 14:05:00,
2013-05-28 09:11:00,67.6,67.6,29.80,WNW,293,0.0,0.0,100,0.00,,BKN090,0.24,VWS V14.01,2013-05-28 14:11:00,
2013-05-28 09:16:00,67.6,67.6,29.83,ESE,119,0.0,2.7,100,0.04,,BKN090,0.28,VWS V14.01,2013-05-28 14:16:00,
2013-05-28 09:21:00,67.6,67.6,29.83,East,91,0.0,0.0,100,0.08,,SCT050,0.31,VWS V14.01,2013-05-28 14:21:00,
2013-05-28 09:26:00,67.8,67.8,29.83,South,190,0.0,0.0,100,0.08,,SCT050,0.31,VWS V14.01,2013-05-28 14:26:00,
2013-05-28 09:31:00,68.2,68.2,29.80,South,183,0.0,0.0,100,0.08,,SCT050,0.31,VWS V14.01,2013-05-28 14:31:00,
2013-05-28 09:36:00,68.2,68.2,29.80,WSW,245,0.0,2.7,100,0.08,,SCT050,0.31,VWS V14.01,2013-05-28 14:36:00,
2013-05-28 09:41:00,68.4,68.4,29.80,SSW,210,0.0,0.0,100,0.08,,SCT055,0.31,VWS V14.01,2013-05-28 14:41:00,
2013-05-28 09:46:00,68.4,68.4,29.80,SE,130,0.0,2.7,100,0.08,,SCT055,0.31,VWS V14.01,2013-05-28 14:46:00,
2013-05-28 09:51:00,68.7,68.7,29.80,South,190,0.0,2.7,100,0.08,,SCT055,0.31,VWS V14.01,2013-05-28 14:51:00,
2013-05-28 09:56:00,69.1,69.1,29.80,South,173,2.2,3.6,100,0.08,,SCT055,0.31,VWS V14.01,2013-05-28 14:56:00,
2013-05-28 10:01:00,69.4,69.4,29.80,SSE,164,0.0,3.6,100,0.08,,SCT055,0.31,VWS V14.01,2013-05-28 15:01:00,
2013-05-28 10:07:00,69.8,69.8,29.80,South,171,3.6,3.6,100,0.08,,SCT055,0.31,VWS V14.01,2013-05-28 15:07:00,
2013-05-28 10:12:00,70.7,70.7,29.80,SSW,207,2.7,4.9,100,0.08,,OVC055,0.31,VWS V14.01,2013-05-28 15:12:00,
2013-05-28 10:17:00,71.4,71.4,29.78,SSW,199,3.1,6.7,100,0.08,,OVC055,0.31,VWS V14.01,2013-05-28 15:17:00,
2013-05-28 10:22:00,72.3,72.3,29.78,South,176,5.8,5.8,100,0.04,,OVC043,0.31,VWS V14.01,2013-05-28 15:22:00,
2013-05-28 10:27:00,72.9,72.9,29.78,SSW,193,4.9,8.7,100,0.00,,OVC043,0.31,VWS V14.01,2013-05-28 15:27:00,
2013-05-28 10:32:00,73.2,73.2,29.78,SSE,157,7.6,11.4,100,0.00,,OVC043,0.31,VWS V14.01,2013-05-28 15:32:00,
2013-05-28 10:37:00,73.4,73.4,29.78,South,184,4.0,9.6,100,0.00,,OVC043,0.31,VWS V14.01,2013-05-28 15:37:00,
2013-05-28 10:42:00,73.2,72.6,29.78,South,177,10.1,11.4,98,0.00,,OVC070,0.31,VWS V14.01,2013-05-28 15:42:00,
2013-05-28 10:47:00,73.4,69.5,29.75,SW,222,7.6,10.1,88,0.00,,OVC070,0.31,VWS V14.01,2013-05-28 15:47:00,
2013-05-28 10:53:00,73.8,69.8,29.75,SSW,194,7.6,8.7,88,0.00,,OVC070,0.31,VWS V14.01,2013-05-28 15:53:00,
2013-05-28 10:58:00,74.3,70.3,29.75,South,176,5.8,10.1,88,0.00,,OVC070,0.31,VWS V14.01,2013-05-28 15:58:00,
2013-05-28 11:03:00,74.3,67.9,29.78,SSW,193,3.6,10.5,80,0.00,,OVC070,0.31,VWS V14.01,2013-05-28 16:03:00,
2013-05-28 11:08:00,73.9,66.3,29.78,SSW,213,4.0,10.1,77,0.00,,OVC090,0.31,VWS V14.01,2013-05-28 16:08:00,
2013-05-28 11:13:00,74.1,67.7,29.78,SSW,200,7.6,7.6,80,0.00,,OVC090,0.31,VWS V14.01,2013-05-28 16:13:00,
2013-05-28 11:18:00,74.3,67.9,29.78,SSW,198,8.7,8.7,80,0.00,,OVC090,0.31,VWS V14.01,2013-05-28 16:18:00,
2013-05-28 11:23:00,74.3,66.6,29.78,SW,219,5.4,10.1,77,0.00,,BKN120,0.31,VWS V14.01,2013-05-28 16:23:00,
2013-05-28 11:28:00,74.8,67.2,29.78,SSW,196,5.8,12.8,77,0.00,,BKN120,0.31,VWS V14.01,2013-05-28 16:28:00,
2013-05-28 11:33:00,75.0,67.3,29.78,SW,220,2.7,9.6,77,0.00,,BKN120,0.31,VWS V14.01,2013-05-28 16:33:00,
2013-05-28 11:38:00,75.4,66.3,29.78,SSW,203,3.1,5.4,74,0.00,,BKN120,0.31,VWS V14.01,2013-05-28 16:38:00,
2013-05-28 11:44:00,75.4,66.3,29.78,SW,216,10.5,10.5,74,0.00,,BKN120,0.31,VWS V14.01,2013-05-28 16:44:00,
2013-05-28 11:49:00,75.6,66.5,29.78,SW,222,6.7,10.1,74,0.00,,BKN120,0.31,VWS V14.01,2013-05-28 16:49:00,
2013-05-28 11:54:00,75.6,66.5,29.78,SW,226,4.0,11.9,74,0.00,,BKN120,0.31,VWS V14.01,2013-05-28 16:54:00,
2013-05-28 11:59:00,75.7,66.7,29.78,WNW,282,3.6,13.2,74,0.00,,BKN120,0.31,VWS V14.01,2013-05-28 16:59:00,
2013-05-28 12:04:00,75.7,66.7,29.80,South,185,5.8,9.6,74,0.00,,SCT120,0.31,VWS V14.01,2013-05-28 17:04:00,
2013-05-28 12:09:00,76.1,67.0,29.80,SSW,192,4.0,10.5,74,0.00,,SCT120,0.31,VWS V14.01,2013-05-28 17:09:00,
2013-05-28 12:14:00,76.1,65.6,29.80,SSE,158,6.3,13.2,70,0.00,,SCT120,0.31,VWS V14.01,2013-05-28 17:14:00,
2013-05-28 12:19:00,76.1,67.0,29.80,SW,230,10.5,11.0,74,0.00,,SCT120,0.31,VWS V14.01,2013-05-28 17:19:00,
2013-05-28 12:24:00,76.5,67.4,29.80,SSW,211,6.3,7.6,74,0.00,,BKN075,0.31,VWS V14.01,2013-05-28 17:24:00,
2013-05-28 12:29:00,76.3,65.8,29.80,WSW,242,5.4,9.6,70,0.00,,BKN075,0.31,VWS V14.01,2013-05-28 17:29:00,
2013-05-28 12:35:00,76.3,65.8,29.78,SSW,207,4.9,8.1,70,0.00,,BKN075,0.31,VWS V14.01,2013-05-28 17:35:00,
2013-05-28 12:40:00,76.5,66.0,29.78,SSE,159,5.8,8.7,70,0.00,,BKN075,0.31,VWS V14.01,2013-05-28 17:40:00,
2013-05-28 12:45:00,76.6,66.1,29.78,South,188,3.1,12.3,70,0.00,,SCT085,0.31,VWS V14.01,2013-05-28 17:45:00,
2013-05-28 12:50:00,76.5,66.0,29.78,South,179,3.1,9.2,70,0.00,,SCT085,0.31,VWS V14.01,2013-05-28 17:50:00,
2013-05-28 12:55:00,76.1,65.6,29.78,WSW,249,8.1,8.1,70,0.00,,SCT085,0.31,VWS V14.01,2013-05-28 17:55:00,
2013-05-28 13:00:00,76.3,65.8,29.78,SSE,164,10.1,10.1,70,0.00,,SCT085,0.31,VWS V14.01,2013-05-28 18:00:00,
2013-05-28 13:05:00,76.6,66.1,29.78,SSW,209,8.3,8.3,70,0.00,,CLR,0.31,VWS V14.01,2013-05-28 18:05:00,
2013-05-28 13:10:00,77.4,66.8,29.78,South,182,4.0,4.0,70,0.00,,CLR,0.31,VWS V14.01,2013-05-28 18:10:00,
2013-05-28 13:15:00,77.9,67.3,29.78,South,191,6.7,7.2,70,0.00,,CLR,0.31,VWS V14.01,2013-05-28 18:15:00,
2013-05-28 13:20:00,78.1,67.5,29.78,South,175,5.4,11.0,70,0.00,,CLR,0.31,VWS V14.01,2013-05-28 18:20:00,
2013-05-28 13:25:00,77.9,64.3,29.78,South,179,8.1,8.1,63,0.00,,CLR,0.31,VWS V14.01,2013-05-28 18:25:00,
2013-05-28 13:30:00,77.7,64.1,29.78,SW,217,3.6,4.0,63,0.00,,CLR,0.31,VWS V14.01,2013-05-28 18:30:00,
2013-05-28 13:35:00,77.7,64.1,29.78,South,175,2.7,4.0,63,0.00,,CLR,0.31,VWS V14.01,2013-05-28 18:35:00,
2013-05-28 13:41:00,77.4,63.8,29.78,SW,233,2.7,7.2,63,0.00,,CLR,0.31,VWS V14.01,2013-05-28 18:41:00,
2013-05-28 13:46:00,76.5,62.9,29.78,SSW,207,6.3,6.3,63,0.00,,CLR,0.31,VWS V14.01,2013-05-28 18:46:00,
2013-05-28 13:51:00,75.9,62.4,29.78,SSE,155,2.2,4.0,63,0.00,,CLR,0.31,VWS V14.01,2013-05-28 18:51:00,
2013-05-28 13:56:00,76.1,62.6,29.78,SSE,167,2.7,5.8,63,0.00,,CLR,0.31,VWS V14.01,2013-05-28 18:56:00,
2013-05-28 14:01:00,76.1,62.6,29.78,South,170,5.8,8.3,63,0.00,,CLR,0.31,VWS V14.01,2013-05-28 19:01:00,
2013-05-28 14:06:00,76.1,62.6,29.78,SSW,194,10.1,10.1,63,0.00,,CLR,0.31,VWS V14.01,2013-05-28 19:06:00,
2013-05-28 14:11:00,76.1,62.6,29.78,SSW,197,7.6,10.5,63,0.00,,CLR,0.31,VWS V14.01,2013-05-28 19:11:00,
2013-05-28 14:16:00,75.9,62.4,29.80,SW,227,5.8,5.8,63,0.00,,CLR,0.31,VWS V14.01,2013-05-28 19:16:00,
2013-05-28 14:21:00,76.1,62.6,29.80,SE,141,8.7,12.8,63,0.00,,BKN041,0.31,VWS V14.01,2013-05-28 19:21:00,
2013-05-28 14:26:00,76.5,62.9,29.80,South,190,7.6,7.6,63,0.00,,BKN041,0.31,VWS V14.01,2013-05-28 19:26:00,
2013-05-28 14:32:00,76.6,63.1,29.80,SSW,206,6.3,9.6,63,0.00,,BKN041,0.31,VWS V14.01,2013-05-28 19:32:00,
2013-05-28 14:37:00,76.5,62.9,29.80,South,182,6.3,12.8,63,0.00,,BKN041,0.31,VWS V14.01,2013-05-28 19:37:00,
2013-05-28 14:42:00,76.3,62.8,29.80,South,183,5.4,11.0,63,0.00,,BKN041,0.31,VWS V14.01,2013-05-28 19:42:00,
2013-05-28 14:47:00,76.1,65.6,29.80,SE,132,0.0,6.3,70,0.00,,SCT043,0.31,VWS V14.01,2013-05-28 19:47:00,
2013-05-28 14:52:00,76.3,65.8,29.80,WNW,282,3.6,10.5,70,0.00,,SCT043,0.31,VWS V14.01,2013-05-28 19:52:00,
2013-05-28 14:57:00,76.6,66.1,29.80,SSE,166,7.2,7.2,70,0.00,,SCT043,0.31,VWS V14.01,2013-05-28 19:57:00,
2013-05-28 15:02:00,77.0,66.5,29.80,SSW,195,6.3,7.2,70,0.00,,CLR,0.31,VWS V14.01,2013-05-28 20:02:00,
2013-05-28 15:07:00,77.2,63.6,29.80,South,180,4.9,7.2,63,0.00,,CLR,0.31,VWS V14.01,2013-05-28 20:07:00,
2013-05-28 15:12:00,76.6,63.1,29.80,South,178,3.6,12.8,63,0.00,,CLR,0.31,VWS V14.01,2013-05-28 20:12:00,
2013-05-28 15:17:00,76.3,65.8,29.80,SW,224,8.3,8.3,70,0.00,,CLR,0.31,VWS V14.01,2013-05-28 20:17:00,
2013-05-28 15:22:00,75.7,65.3,29.80,SW,220,8.7,8.7,70,0.00,,CLR,0.31,VWS V14.01,2013-05-28 20:22:00,
2013-05-28 15:27:00,75.4,64.9,29.80,South,173,6.3,8.7,70,0.00,,CLR,0.31,VWS V14.01,2013-05-28 20:27:00,
2013-05-28 15:32:00,75.4,64.9,29.80,SSW,213,8.3,9.6,70,0.00,,CLR,0.31,VWS V14.01,2013-05-28 20:32:00,
2013-05-28 15:38:00,75.2,64.8,29.80,WNW,299,5.4,7.6,70,0.00,,CLR,0.31,VWS V14.01,2013-05-28 20:38:00,
2013-05-28 15:43:00,75.0,66.0,29.80,SW,220,5.4,6.3,74,0.00,,BKN044,0.31,VWS V14.01,2013-05-28 20:43:00,
2013-05-28 15:48:00,75.0,66.0,29.80,SSW,200,3.1,7.2,74,0.00,,BKN044,0.31,VWS V14.01,2013-05-28 20:48:00,
2013-05-28 15:53:00,75.2,64.8,29.80,WNW,297,2.7,10.1,70,0.00,,BKN044,0.31,VWS V14.01,2013-05-28 20:53:00,
2013-05-28 15:58:00,75.4,64.9,29.80,SW,224,3.1,6.3,70,0.00,,BKN044,0.31,VWS V14.01,2013-05-28 20:58:00,
2013-05-28 16:03:00,75.6,65.1,29.80,SSE,159,4.0,6.3,70,0.00,,SCT120,0.31,VWS V14.01,2013-05-28 21:03:00,
2013-05-28 16:08:00,75.9,65.4,29.80,South,181,4.0,4.5,70,0.00,,SCT120,0.31,VWS V14.01,2013-05-28 21:08:00,
2013-05-28 16:13:00,76.1,65.6,29.80,NE,48,5.4,5.8,70,0.00,,SCT120,0.31,VWS V14.01,2013-05-28 21:13:00,
2013-05-28 16:18:00,76.1,65.6,29.80,SSW,212,3.6,8.7,70,0.00,,SCT120,0.31,VWS V14.01,2013-05-28 21:18:00,
2013-05-28 16:23:00,76.1,65.6,29.80,SSW,211,0.0,8.3,70,0.00,,SCT120,0.31,VWS V14.01,2013-05-28 21:23:00,
2013-05-28 16:28:00,76.1,65.6,29.80,SSW,196,0.0,7.2,70,0.00,,SCT120,0.31,VWS V14.01,2013-05-28 21:28:00,
2013-05-28 16:33:00,75.6,65.1,29.80,South,170,3.6,10.1,70,0.00,,SCT120,0.31,VWS V14.01,2013-05-28 21:33:00,
2013-05-28 16:38:00,75.4,66.3,29.80,SW,220,4.9,11.9,74,0.00,,SCT120,0.31,VWS V14.01,2013-05-28 21:38:00,
2013-05-28 16:44:00,75.2,66.2,29.80,SSW,202,5.4,5.8,74,0.00,,SCT120,0.31,VWS V14.01,2013-05-28 21:44:00,
2013-05-28 16:49:00,75.2,66.2,29.80,South,175,5.4,6.3,74,0.00,,SCT120,0.31,VWS V14.01,2013-05-28 21:49:00,
2013-05-28 16:54:00,75.4,66.3,29.80,South,189,2.7,9.2,74,0.00,,SCT120,0.31,VWS V14.01,2013-05-28 21:54:00,
2013-05-28 16:59:00,75.4,66.3,29.80,SSW,204,3.6,8.1,74,0.00,,SCT120,0.31,VWS V14.01,2013-05-28 21:59:00,
2013-05-28 17:04:00,75.4,66.3,29.80,SSW,209,0.0,7.6,74,0.00,,CLR,0.31,VWS V14.01,2013-05-28 22:04:00,
2013-05-28 17:09:00,75.2,66.2,29.80,South,191,3.1,5.8,74,0.00,,CLR,0.31,VWS V14.01,2013-05-28 22:09:00,
2013-05-28 17:14:00,75.2,66.2,29.80,SSE,159,4.9,5.8,74,0.00,,CLR,0.31,VWS V14.01,2013-05-28 22:14:00,
2013-05-28 17:19:00,75.0,66.0,29.80,WSW,255,2.7,4.9,74,0.00,,CLR,0.31,VWS V14.01,2013-05-28 22:19:00,
2013-05-28 17:24:00,74.8,65.8,29.80,SSW,195,0.0,4.0,74,0.00,,CLR,0.31,VWS V14.01,2013-05-28 22:24:00,
2013-05-28 17:29:00,74.8,65.8,29.80,SW,218,0.0,5.8,74,0.00,,CLR,0.31,VWS V14.01,2013-05-28 22:29:00,
2013-05-28 17:34:00,74.8,67.2,29.80,South,190,2.7,4.9,77,0.00,,CLR,0.31,VWS V14.01,2013-05-28 22:34:00,
2013-05-28 17:39:00,74.7,67.0,29.80,South,176,0.0,5.8,77,0.00,,CLR,0.31,VWS V14.01,2013-05-28 22:39:00,
2013-05-28 17:45:00,74.7,67.0,29.80,SSW,200,4.9,4.9,77,0.00,,CLR,0.31,VWS V14.01,2013-05-28 22:45:00,
2013-05-28 17:50:00,74.7,67.0,29.80,SW,232,0.0,6.7,77,0.00,,CLR,0.31,VWS V14.01,2013-05-28 22:50:00,
2013-05-28 17:55:00,74.8,67.2,29.80,SSE,151,0.0,6.3,77,0.00,,CLR,0.31,VWS V14.01,2013-05-28 22:55:00,
2013-05-28 18:00:00,74.7,67.0,29.78,South,186,0.0,3.6,77,0.00,,CLR,0.31,VWS V14.01,2013-05-28 23:00:00,
2013-05-28 18:05:00,74.7,67.0,29.78,South,180,0.0,4.0,77,0.00,,BKN045,0.31,VWS V14.01,2013-05-28 23:05:00,
2013-05-28 18:10:00,74.7,67.0,29.78,SW,214,0.0,4.9,77,0.00,,BKN045,0.31,VWS V14.01,2013-05-28 23:10:00,
2013-05-28 18:15:00,74.7,68.3,29.78,SSE,153,0.0,0.0,80,0.00,,BKN045,0.31,VWS V14.01,2013-05-28 23:15:00,
2013-05-28 18:20:00,74.7,68.3,29.78,South,176,0.0,3.1,80,0.00,,BKN045,0.31,VWS V14.01,2013-05-28 23:20:00,
2013-05-28 18:25:00,74.5,68.1,29.78,SSE,162,0.0,0.0,80,0.00,,OVC045,0.31,VWS V14.01,2013-05-28 23:25:00,
2013-05-28 18:30:00,74.5,68.1,29.78,SE,145,2.7,2.7,80,0.00,,OVC045,0.31,VWS V14.01,2013-05-28 23:30:00,
2013-05-28 18:35:00,74.5,68.1,29.78,SSW,196,4.0,4.0,80,0.00,,OVC045,0.31,VWS V14.01,2013-05-28 23:35:00,
2013-05-28 18:40:00,74.7,69.5,29.78,South,171,2.7,4.0,84,0.00,,OVC045,0.31,VWS V14.01,2013-05-28 23:40:00,
2013-05-28 18:45:00,74.8,69.7,29.80,South,191,2.2,2.7,84,0.00,,BKN045,0.31,VWS V14.01,2013-05-28 23:45:00,
2013-05-28 18:50:00,75.0,69.9,29.80,SE,124,2.7,2.7,84,0.00,,BKN045,0.31,VWS V14.01,2013-05-28 23:50:00,
2013-05-28 18:55:00,75.2,68.8,29.80,SW,231,2.7,3.6,80,0.00,,BKN045,0.31,VWS V14.01,2013-05-28 23:55:00,
2013-05-28 19:00:00,75.2,68.8,29.80,SW,220,0.0,3.6,80,0.00,,SCT047,0.31,VWS V14.01,2013-05-29 00:00:00,
2013-05-28 19:06:00,75.2,68.8,29.80,WSW,252,0.0,3.6,80,0.00,,SCT047,0.31,VWS V14.01,2013-05-29 00:06:00,
2013-05-28 19:11:00,75.4,69.0,29.80,SSW,204,2.7,3.6,80,0.00,,SCT047,0.31,VWS V14.01,2013-05-29 00:11:00,
2013-05-28 19:16:00,75.4,69.0,29.80,SW,220,0.0,5.4,80,0.00,,SCT047,0.31,VWS V14.01,2013-05-29 00:16:00,
2013-05-28 19:21:00,75.6,69.1,29.80,SW,230,3.6,4.9,80,0.00,,SCT047,0.31,VWS V14.01,2013-05-29 00:21:00,
2013-05-28 19:26:00,75.6,69.1,29.80,West,273,0.0,0.0,80,0.00,,SCT047,0.31,VWS V14.01,2013-05-29 00:26:00,
2013-05-28 19:31:00,75.0,66.0,29.83,WNW,290,11.0,11.0,74,0.00,,SCT047,0.31,VWS V14.01,2013-05-29 00:31:00,
2013-05-28 19:36:00,74.1,65.1,29.83,West,270,5.4,5.4,74,0.00,,CLR,0.31,VWS V14.01,2013-05-29 00:36:00,
2013-05-28 19:41:00,72.9,61.1,29.83,West,260,2.7,5.4,66,0.00,,CLR,0.31,VWS V14.01,2013-05-29 00:41:00,
2013-05-28 19:46:00,71.8,60.0,29.83,North,349,4.0,4.9,66,0.00,,SCT042,0.31,VWS V14.01,2013-05-29 00:46:00,
2013-05-28 19:51:00,71.1,59.3,29.83,North,8,4.9,5.8,66,0.00,,SCT042,0.31,VWS V14.01,2013-05-29 00:51:00,
2013-05-28 19:57:00,70.7,59.0,29.83,NNE,21,0.0,0.0,66,0.00,,SCT042,0.31,VWS V14.01,2013-05-29 00:57:00,
2013-05-28 20:02:00,70.3,58.7,29.83,North,2,0.0,0.0,66,0.00,,BKN075,0.31,VWS V14.01,2013-05-29 01:02:00,
2013-05-28 20:07:00,70.0,58.3,29.83,NNW,336,0.0,4.9,66,0.00,,BKN075,0.31,VWS V14.01,2013-05-29 01:07:00,
2013-05-28 20:12:00,69.8,58.2,29.83,NW,325,3.1,5.8,66,0.00,,BKN075,0.31,VWS V14.01,2013-05-29 01:12:00,
2013-05-28 20:17:00,69.4,59.2,29.83,North,349,0.0,3.6,70,0.00,,BKN075,0.31,VWS V14.01,2013-05-29 01:17:00,
2013-05-28 20:22:00,69.1,58.9,29.83,NNW,339,0.0,0.0,70,0.00,,BKN055,0.31,VWS V14.01,2013-05-29 01:22:00,
2013-05-28 20:27:00,68.9,58.7,29.83,North,353,0.0,0.0,70,0.00,,BKN055,0.31,VWS V14.01,2013-05-29 01:27:00,
2013-05-28 20:32:00,68.7,58.5,29.80,North,353,0.0,0.0,70,0.00,,BKN055,0.31,VWS V14.01,2013-05-29 01:32:00,
2013-05-28 20:37:00,68.7,58.5,29.80,NNE,30,0.0,0.0,70,0.00,,BKN055,0.31,VWS V14.01,2013-05-29 01:37:00,
2013-05-28 20:42:00,68.5,58.4,29.80,NNE,33,0.0,4.9,70,0.00,,SCT060,0.31,VWS V14.01,2013-05-29 01:42:00,
2013-05-28 20:47:00,68.4,60.9,29.80,North,0,4.9,4.9,77,0.00,,SCT060,0.31,VWS V14.01,2013-05-29 01:47:00,
2013-05-28 20:53:00,68.2,60.7,29.80,NE,44,3.1,3.1,77,0.00,,SCT060,0.31,VWS V14.01,2013-05-29 01:53:00,
2013-05-28 20:58:00,68.0,60.5,29.80,NE,54,0.0,2.7,77,0.00,,SCT060,0.31,VWS V14.01,2013-05-29 01:58:00,
2013-05-28 21:03:00,67.8,60.3,29.80,NE,47,0.0,0.0,77,0.00,,CLR,0.31,VWS V14.01,2013-05-29 02:03:00,
2013-05-28 21:08:00,67.6,60.2,29.80,North,353,0.0,0.0,77,0.00,,CLR,0.31,VWS V14.01,2013-05-29 02:08:00,
2013-05-28 21:13:00,67.6,60.2,29.80,SSE,164,0.0,0.0,77,0.00,,CLR,0.31,VWS V14.01,2013-05-29 02:13:00,
2013-05-28 21:18:00,67.5,61.3,29.83,SSE,164,0.0,0.0,80,0.00,,CLR,0.31,VWS V14.01,2013-05-29 02:18:00,
2013-05-28 21:23:00,67.5,61.3,29.83,SSE,155,0.0,0.0,80,0.00,,CLR,0.31,VWS V14.01,2013-05-29 02:23:00,
2013-05-28 21:28:00,67.5,61.3,29.83,SSE,155,0.0,0.0,80,0.00,,CLR,0.31,VWS V14.01,2013-05-29 02:28:00,
2013-05-28 21:33:00,67.5,61.3,29.83,SSE,155,0.0,0.0,80,0.00,,CLR,0.31,VWS V14.01,2013-05-29 02:33:00,
2013-05-28 21:38:00,67.5,61.3,29.83,SSE,155,0.0,0.0,80,0.00,,CLR,0.31,VWS V14.01,2013-05-29 02:38:00,
2013-05-28 21:44:00,67.5,61.3,29.83,SSE,155,0.0,0.0,80,0.00,,CLR,0.31,VWS V14.01,2013-05-29 02:44:00,
2013-05-28 21:49:00,67.3,61.1,29.86,SSE,155,0.0,0.0,80,0.00,,CLR,0.31,VWS V14.01,2013-05-29 02:49:00,
2013-05-28 21:54:00,67.3,61.1,29.86,SSE,155,0.0,0.0,80,0.00,,CLR,0.31,VWS V14.01,2013-05-29 02:54:00,
2013-05-28 21:59:00,67.3,61.1,29.86,SSE,155,0.0,0.0,80,0.00,,CLR,0.31,VWS V14.01,2013-05-29 02:59:00,
2013-05-28 22:04:00,67.1,62.1,29.86,SSE,155,0.0,0.0,84,0.00,,SCT055,0.31,VWS V14.01,2013-05-29 03:04:00,
2013-05-28 22:09:00,67.1,62.1,29.86,SSE,155,0.0,0.0,84,0.00,,SCT055,0.31,VWS V14.01,2013-05-29 03:09:00,
2013-05-28 22:14:00,67.3,62.3,29.86,SE,136,0.0,0.0,84,0.00,,SCT055,0.31,VWS V14.01,2013-05-29 03:14:00,
2013-05-28 22:19:00,67.5,62.5,29.89,SE,136,0.0,0.0,84,0.00,,SCT055,0.31,VWS V14.01,2013-05-29 03:19:00,
2013-05-28 22:24:00,67.6,62.6,29.89,SSE,155,0.0,0.0,84,0.00,,BKN055,0.31,VWS V14.01,2013-05-29 03:24:00,
2013-05-28 22:29:00,68.0,63.0,29.86,SE,143,0.0,4.0,84,0.00,,BKN055,0.31,VWS V14.01,2013-05-29 03:29:00,
2013-05-28 22:34:00,67.8,64.0,29.86,SE,143,0.0,0.0,88,0.00,,BKN055,0.31,VWS V14.01,2013-05-29 03:34:00,
2013-05-28 22:40:00,67.6,63.8,29.86,SE,143,0.0,0.0,88,0.00,,BKN055,0.31,VWS V14.01,2013-05-29 03:40:00,
2013-05-28 22:45:00,67.6,63.8,29.86,SE,143,0.0,0.0,88,0.00,,OVC065,0.31,VWS V14.01,2013-05-29 03:45:00,
2013-05-28 22:50:00,67.6,63.8,29.86,SE,145,0.0,0.0,88,0.04,,OVC065,0.35,VWS V14.01,2013-05-29 03:50:00,
2013-05-28 22:55:00,67.6,63.8,29.86,SE,145,0.0,0.0,88,0.04,,OVC065,0.35,VWS V14.01,2013-05-29 03:55:00,
2013-05-28 23:00:00,67.5,63.6,29.86,SE,145,0.0,0.0,88,0.04,,OVC065,0.35,VWS V14.01,2013-05-29 04:00:00,
2013-05-28 23:01:00,67.5,63.6,29.86,SE,145,0.0,0.0,88,0.04,,OVC065,0.35,VWS V14.01,2013-05-29 04:01:00,
2013-05-28 23:02:00,67.5,64.8,29.86,SE,145,0.0,0.0,91,0.04,,OVC065,0.35,VWS V14.01,2013-05-29 04:02:00,
2013-05-28 23:04:00,67.5,64.8,29.86,SE,145,0.0,0.0,91,0.04,,OVC065,0.35,VWS V14.01,2013-05-29 04:04:00,
2013-05-28 23:09:00,67.5,64.8,29.86,SE,145,0.0,0.0,91,0.04,,OVC065,0.35,VWS V14.01,2013-05-29 04:09:00,
2013-05-28 23:14:00,67.5,65.8,29.86,SE,145,0.0,0.0,94,0.04,,OVC065,0.35,VWS V14.01,2013-05-29 04:14:00,
2013-05-28 23:19:00,67.5,65.8,29.86,WSW,242,0.0,0.0,94,0.04,,OVC065,0.35,VWS V14.01,2013-05-29 04:19:00,
2013-05-28 23:24:00,67.5,65.8,29.86,SW,214,0.0,0.0,94,0.04,,OVC075,0.35,VWS V14.01,2013-05-29 04:24:00,
2013-05-28 23:29:00,67.5,66.9,29.86,North,357,2.7,3.6,98,0.04,,OVC075,0.35,VWS V14.01,2013-05-29 04:29:00,
2013-05-28 23:34:00,67.8,67.8,29.89,NW,312,0.0,4.0,100,0.04,,OVC075,0.35,VWS V14.01,2013-05-29 04:34:00,
2013-05-28 23:39:00,68.0,68.0,29.89,WNW,290,0.0,5.4,100,0.04,,OVC075,0.35,VWS V14.01,2013-05-29 04:39:00,
2013-05-28 23:44:00,68.4,68.4,29.89,WNW,302,2.2,5.4,100,0.04,,OVC070,0.35,VWS V14.01,2013-05-29 04:44:00,
2013-05-28 23:49:00,68.7,68.7,29.89,North,4,9.2,9.2,100,0.04,,OVC070,0.35,VWS V14.01,2013-05-29 04:49:00,
2013-05-28 23:54:00,68.7,68.7,29.89,SW,214,3.6,8.7,100,0.00,,OVC070,0.35,VWS V14.01,2013-05-29 04:54:00,